Accueil
METAR-TAF:

METAR-TAF

Aéroports :

Shawbury, Angleterre

latitude: 52-48N, longitude: 002-40W, altitude: 76 m

Observation

Le bulletin a été fait il y a 1 heure et 9 minutes, à 23:50 UTC
Vent 9 kt de ouest/sud-ouest
Température 10°C
Humidité 87%
Pression 1013 hPa
Visibilité 10 km ou plus

METAR: EGOS 232350Z AUTO 25009KT 9999 BKN150/// 10/08 Q1013

Heure: 01:59 (00:59 UTC)

Prévision

Le bulletin a été fait il y a 11 heures et 23 minutes, à 13:36 UTC
Prévision valable du 23 à 15 UTC au 23 à 18 UTC
Vent 12 kt de ouest/sud-ouest avec des rafales jusqu'à 22 kt
Visibilité 10 km ou plus
Nuages épars à une hauteur de 4000 ft
Evoluant progressivement
du 23 à 16 UTC au 23 à 18 UTC
Nuages épars à une hauteur de 2000 ft
Nuages fragmentés à une hauteur de 3000 ft

TAF: EGOS 231336Z 2315/2318 24012G22KT 9999 SCT040 BECMG 2316/2318 SCT020 BKN030

Observations et prévisions météorologiques de plus de 4000 aéroports (messages METAR et TAF).

Les stations disponibles sont représentées par des disques jaunes et rouges sur la carte.

Passer la souris dessus pour voir le nom de la station.

Cliquer dessus pour voir les observations et prévisions météorologiques.

Pour changer de carte: cliquez sur les boutons verts avec une croix noire pour zoomer, sur le bouton vert avec un tiret pour effectuer un zoom arrière, ou sur les flèches vertes pour les cartes adjacentes.


METAR-TAF: